Time;durP1;ratioP1;P1;durP2;ratioP2;P2;SDS_P1;SDS_P2;PMS_P1;PMS_P2;Temp;Humidity;BMP_temperature;BMP_pressure;BME280_temperature;BME280_humidity;BME280_pressure;Samples;Min_cycle;Max_cycle;Signal;HPM_P1;HPM_P2
2021/04/05 00:00:01;;;;;;;25.70;15.10;;;;;;;;;;762893;180;1006861;-77
2021/04/05 00:02:27;;;;;;;28.30;17.13;;;;;;;;;;766789;180;918919;-77
2021/04/05 00:04:53;;;;;;;27.30;16.60;;;;;;;;;;766389;180;919531;-77
2021/04/05 00:07:19;;;;;;;22.57;15.60;;;;;;;;;;766659;181;918885;-77
2021/04/05 00:09:45;;;;;;;23.40;16.07;;;;;;;;;;767012;180;933453;-77
2021/04/05 00:12:11;;;;;;;32.10;18.13;;;;;;;;;;771898;180;917272;-77
2021/04/05 00:14:37;;;;;;;30.03;16.30;;;;;;;;;;768285;180;1150049;-77
2021/04/05 00:17:03;;;;;;;26.00;17.17;;;;;;;;;;765425;180;1012233;-77
2021/04/05 00:19:29;;;;;;;25.52;16.65;;;;;;;;;;765169;180;919999;-77
2021/04/05 00:21:55;;;;;;;25.57;16.20;;;;;;;;;;773067;180;1016496;-77
2021/04/05 00:24:21;;;;;;;25.77;15.67;;;;;;;;;;766846;180;932810;-78
2021/04/05 00:26:47;;;;;;;26.93;17.10;;;;;;;;;;766985;180;964255;-77
2021/04/05 00:29:13;;;;;;;26.53;18.10;;;;;;;;;;765665;180;1016037;-74
2021/04/05 00:31:38;;;;;;;29.73;18.17;;;;;;;;;;740188;187;919557;-77
2021/04/05 00:34:04;;;;;;;29.53;17.43;;;;;;;;;;768868;180;918917;-77
2021/04/05 00:36:30;;;;;;;24.10;15.50;;;;;;;;;;765050;180;919178;-75
2021/04/05 00:38:56;;;;;;;32.13;19.48;;;;;;;;;;772998;181;920448;-77
2021/04/05 00:41:22;;;;;;;33.90;16.67;;;;;;;;;;765674;180;1002927;-77
2021/04/05 00:43:47;;;;;;;29.90;17.40;;;;;;;;;;767471;180;916651;-77
2021/04/05 00:46:13;;;;;;;29.03;18.10;;;;;;;;;;767963;180;915009;-77
2021/04/05 00:48:39;;;;;;;31.70;18.43;;;;;;;;;;762714;180;922277;-77
2021/04/05 00:51:06;;;;;;;29.35;17.77;;;;;;;;;;764739;180;1025108;-76
2021/04/05 00:53:34;;;;;;;28.62;18.37;;;;;;;;;;768400;180;919588;-74
2021/04/05 00:55:58;;;;;;;32.17;17.70;;;;;;;;;;761215;182;1018893;-77
2021/04/05 00:58:24;;;;;;;34.80;17.97;;;;;;;;;;767953;180;920425;-76
2021/04/05 01:00:51;;;;;;;32.03;18.05;;;;;;;;;;766692;180;914675;-76
2021/04/05 01:03:16;;;;;;;29.50;17.63;;;;;;;;;;770944;180;915082;-76
2021/04/05 01:05:45;;;;;;;26.40;17.00;;;;;;;;;;762601;180;1764632;-76
2021/04/05 01:08:10;;;;;;;28.80;16.47;;;;;;;;;;746114;187;903656;-77
2021/04/05 01:10:36;;;;;;;27.77;18.12;;;;;;;;;;746698;185;915023;-77
2021/04/05 01:13:02;;;;;;;27.43;15.17;;;;;;;;;;761840;180;918781;-77
2021/04/05 01:15:28;;;;;;;33.27;17.37;;;;;;;;;;766908;179;919683;-76
2021/04/05 01:17:54;;;;;;;30.90;15.40;;;;;;;;;;768792;180;918795;-76
2021/04/05 01:20:20;;;;;;;24.80;14.00;;;;;;;;;;767962;180;918969;-77
2021/04/05 01:22:46;;;;;;;24.40;15.13;;;;;;;;;;769360;180;990780;-77
2021/04/05 01:25:13;;;;;;;24.80;16.67;;;;;;;;;;770156;180;917667;-76
2021/04/05 01:27:38;;;;;;;27.98;17.37;;;;;;;;;;769962;180;1021297;-77
2021/04/05 01:30:05;;;;;;;30.50;17.17;;;;;;;;;;764341;180;919116;-77
2021/04/05 01:32:31;;;;;;;28.63;18.00;;;;;;;;;;768385;178;919192;-77
2021/04/05 01:34:57;;;;;;;25.60;17.10;;;;;;;;;;771898;180;916814;-76
2021/04/05 01:37:23;;;;;;;25.73;16.33;;;;;;;;;;764717;180;942734;-77
2021/04/05 01:39:49;;;;;;;28.00;18.35;;;;;;;;;;768290;180;915786;-77
2021/04/05 01:42:18;;;;;;;28.77;16.77;;;;;;;;;;767853;180;1082264;-73
2021/04/05 01:44:44;;;;;;;22.87;16.20;;;;;;;;;;765266;181;911116;-77
2021/04/05 01:47:10;;;;;;;23.90;15.87;;;;;;;;;;770993;180;918747;-76
2021/04/05 01:49:35;;;;;;;26.63;16.90;;;;;;;;;;764986;180;919034;-78
2021/04/05 01:52:01;;;;;;;25.87;16.37;;;;;;;;;;772132;181;627704;-76
2021/04/05 01:54:27;;;;;;;24.33;16.73;;;;;;;;;;763597;180;919078;-77
2021/04/05 01:56:53;;;;;;;25.20;15.73;;;;;;;;;;764545;180;1021567;-77
2021/04/05 01:59:19;;;;;;;28.37;17.67;;;;;;;;;;766677;180;1017868;-77
2021/04/05 02:01:45;;;;;;;24.93;16.90;;;;;;;;;;752622;184;917448;-78
2021/04/05 02:04:10;;;;;;;25.40;15.90;;;;;;;;;;730961;190;970643;-77
2021/04/05 02:06:36;;;;;;;29.03;18.53;;;;;;;;;;736656;185;1019883;-78
2021/04/05 02:09:03;;;;;;;30.17;16.07;;;;;;;;;;751271;186;919062;-78
2021/04/05 02:11:30;;;;;;;31.00;16.63;;;;;;;;;;748079;185;1063140;-78
2021/04/05 02:13:55;;;;;;;29.03;17.07;;;;;;;;;;746700;186;918508;-78
2021/04/05 02:16:21;;;;;;;23.63;14.90;;;;;;;;;;768229;183;918081;-78
2021/04/05 02:18:47;;;;;;;26.97;16.10;;;;;;;;;;763903;180;919847;-77
2021/04/05 02:21:13;;;;;;;27.97;16.40;;;;;;;;;;765111;181;943066;-78
2021/04/05 02:23:39;;;;;;;30.70;17.20;;;;;;;;;;773642;180;1018442;-78
2021/04/05 02:26:08;;;;;;;26.10;17.13;;;;;;;;;;766128;180;1568790;-77
2021/04/05 02:28:33;;;;;;;30.73;17.60;;;;;;;;;;776198;179;918610;-78
2021/04/05 02:30:59;;;;;;;36.90;19.03;;;;;;;;;;763852;180;1020357;-77
2021/04/05 02:33:25;;;;;;;34.60;17.83;;;;;;;;;;774192;180;919952;-77
2021/04/05 02:35:51;;;;;;;34.33;20.67;;;;;;;;;;766301;180;919160;-77
2021/04/05 02:38:17;;;;;;;27.47;17.63;;;;;;;;;;770861;180;916084;-78
2021/04/05 02:40:42;;;;;;;28.47;17.43;;;;;;;;;;766410;181;918597;-76
2021/04/05 02:43:08;;;;;;;31.70;18.40;;;;;;;;;;767880;180;917619;-77
2021/04/05 02:45:34;;;;;;;28.07;18.90;;;;;;;;;;768898;180;1019170;-77
2021/04/05 02:48:01;;;;;;;28.30;17.57;;;;;;;;;;774107;180;918639;-77
2021/04/05 02:50:27;;;;;;;41.70;22.43;;;;;;;;;;765566;180;914360;-77
2021/04/05 02:52:54;;;;;;;41.80;20.47;;;;;;;;;;769684;180;913116;-76
2021/04/05 02:55:20;;;;;;;35.10;20.47;;;;;;;;;;765285;180;1021563;-76
2021/04/05 02:57:45;;;;;;;29.17;16.10;;;;;;;;;;776965;180;916313;-77
2021/04/05 03:00:12;;;;;;;37.40;18.30;;;;;;;;;;767791;180;1019394;-75
2021/04/05 03:02:38;;;;;;;26.50;16.97;;;;;;;;;;761401;180;910105;-77
2021/04/05 03:05:05;;;;;;;27.50;16.47;;;;;;;;;;769333;180;1020145;-77
2021/04/05 03:07:31;;;;;;;24.23;16.37;;;;;;;;;;765089;180;917891;-77
2021/04/05 03:09:57;;;;;;;31.63;16.20;;;;;;;;;;760482;181;915805;-78
2021/04/05 03:12:23;;;;;;;28.12;18.00;;;;;;;;;;771627;180;837508;-78
2021/04/05 03:14:49;;;;;;;28.80;18.00;;;;;;;;;;770420;180;910943;-78
2021/04/05 03:17:15;;;;;;;36.10;22.43;;;;;;;;;;761785;180;992214;-79
2021/04/05 03:19:41;;;;;;;32.70;17.98;;;;;;;;;;765931;180;874330;-79
2021/04/05 03:22:06;;;;;;;24.87;16.83;;;;;;;;;;769223;180;916205;-78
2021/04/05 03:24:32;;;;;;;29.67;18.00;;;;;;;;;;762214;181;919733;-79
2021/04/05 03:26:58;;;;;;;28.67;16.10;;;;;;;;;;769687;180;917579;-79
2021/04/05 03:29:24;;;;;;;29.30;18.57;;;;;;;;;;771653;180;918179;-79
2021/04/05 03:31:50;;;;;;;29.93;17.53;;;;;;;;;;763926;180;794573;-78
2021/04/05 03:34:16;;;;;;;27.60;16.13;;;;;;;;;;764191;180;916415;-78
2021/04/05 03:36:46;;;;;;;33.37;17.00;;;;;;;;;;770910;180;918644;-78
2021/04/05 03:39:12;;;;;;;41.03;16.90;;;;;;;;;;769313;178;1021130;-79
2021/04/05 03:41:37;;;;;;;28.97;17.33;;;;;;;;;;771989;181;918570;-79
2021/04/05 03:44:09;;;;;;;29.85;16.35;;;;;;;;;;768221;180;808050;-79
2021/04/05 03:46:36;;;;;;;33.23;15.83;;;;;;;;;;772264;180;955468;-79
2021/04/05 03:49:02;;;;;;;25.55;15.55;;;;;;;;;;765363;177;815881;-79
2021/04/05 03:51:29;;;;;;;18.57;9.27;;;;;;;;;;768030;180;919917;-79
2021/04/05 03:53:55;;;;;;;20.33;10.00;;;;;;;;;;764799;180;919412;-79
2021/04/05 03:56:22;;;;;;;20.20;11.70;;;;;;;;;;769505;181;918128;-80
2021/04/05 03:58:48;;;;;;;19.40;11.17;;;;;;;;;;764743;180;1300281;-78
2021/04/05 04:01:15;;;;;;;23.80;11.17;;;;;;;;;;769209;180;1019894;-79
2021/04/05 04:03:47;;;;;;;17.93;10.83;;;;;;;;;;770913;180;913558;-78
2021/04/05 04:06:08;;;;;;;21.80;11.90;;;;;;;;;;769359;180;919486;-78
2021/04/05 04:08:39;;;;;;;17.53;9.23;;;;;;;;;;764842;180;919189;-77
2021/04/05 04:11:00;;;;;;;23.33;10.90;;;;;;;;;;771818;180;918087;-80
2021/04/05 04:13:26;;;;;;;18.50;10.07;;;;;;;;;;761697;180;919783;-79
2021/04/05 04:15:51;;;;;;;25.73;10.80;;;;;;;;;;761574;178;919314;-79
2021/04/05 04:18:18;;;;;;;14.03;8.67;;;;;;;;;;764304;180;1001765;-79
2021/04/05 04:20:44;;;;;;;16.70;9.70;;;;;;;;;;771578;180;918730;-79
2021/04/05 04:23:10;;;;;;;10.80;6.90;;;;;;;;;;766204;180;1021349;-74
2021/04/05 04:25:36;;;;;;;12.23;7.87;;;;;;;;;;766046;180;918239;-76
2021/04/05 04:28:02;;;;;;;9.80;7.00;;;;;;;;;;772470;180;918275;-78
2021/04/05 04:30:32;;;;;;;11.17;6.57;;;;;;;;;;765546;180;916553;-80
2021/04/05 04:32:58;;;;;;;10.43;6.23;;;;;;;;;;766741;180;918729;-79
2021/04/05 04:35:24;;;;;;;9.02;6.07;;;;;;;;;;760251;180;1023561;-80
2021/04/05 04:37:50;;;;;;;10.33;5.63;;;;;;;;;;764392;182;921021;-79
2021/04/05 04:40:16;;;;;;;8.77;6.30;;;;;;;;;;771411;180;903982;-78
2021/04/05 04:42:42;;;;;;;10.80;6.13;;;;;;;;;;768443;180;915727;-81
2021/04/05 04:45:08;;;;;;;8.57;5.60;;;;;;;;;;764295;180;990825;-80
2021/04/05 04:47:34;;;;;;;10.63;6.60;;;;;;;;;;764181;180;919474;-78
2021/04/05 04:50:00;;;;;;;7.93;4.43;;;;;;;;;;763236;180;887017;-78
2021/04/05 04:52:26;;;;;;;10.47;5.10;;;;;;;;;;772651;179;919969;-78
2021/04/05 04:54:52;;;;;;;7.70;4.70;;;;;;;;;;767357;180;919359;-79
2021/04/05 04:57:18;;;;;;;8.60;5.70;;;;;;;;;;768513;180;943471;-79
2021/04/05 04:59:47;;;;;;;10.73;4.70;;;;;;;;;;768362;180;918175;-79
2021/04/05 05:02:13;;;;;;;6.70;4.60;;;;;;;;;;763454;183;1019670;-79
2021/04/05 05:04:39;;;;;;;9.93;6.05;;;;;;;;;;769020;180;919408;-78
2021/04/05 05:07:05;;;;;;;9.53;6.07;;;;;;;;;;747395;180;3684278;-80
2021/04/05 05:09:31;;;;;;;10.10;6.10;;;;;;;;;;773273;180;915080;-79
2021/04/05 05:11:57;;;;;;;10.30;5.37;;;;;;;;;;762103;180;936629;-78
2021/04/05 05:14:22;;;;;;;8.33;5.60;;;;;;;;;;765995;180;907812;-77
2021/04/05 05:16:49;;;;;;;7.10;5.00;;;;;;;;;;769407;180;911931;-79
2021/04/05 05:19:15;;;;;;;8.23;5.10;;;;;;;;;;768406;180;882403;-75
2021/04/05 05:21:43;;;;;;;9.00;4.63;;;;;;;;;;763755;180;913561;-78
2021/04/05 05:24:10;;;;;;;9.50;4.90;;;;;;;;;;767716;180;824472;-75
2021/04/05 05:26:36;;;;;;;7.50;4.60;;;;;;;;;;766440;180;1407313;-76
2021/04/05 05:29:02;;;;;;;8.00;4.60;;;;;;;;;;766231;180;898433;-76
2021/04/05 05:31:28;;;;;;;6.90;4.27;;;;;;;;;;761602;180;914127;-74
2021/04/05 05:33:54;;;;;;;7.17;4.40;;;;;;;;;;769982;180;915673;-76
2021/04/05 05:36:20;;;;;;;9.07;4.60;;;;;;;;;;760143;180;915449;-75
2021/04/05 05:38:46;;;;;;;8.63;4.17;;;;;;;;;;765669;180;915990;-74
2021/04/05 05:41:16;;;;;;;7.70;4.83;;;;;;;;;;769543;180;920225;-73
2021/04/05 05:43:42;;;;;;;7.23;4.70;;;;;;;;;;761204;183;814660;-75
2021/04/05 05:46:10;;;;;;;5.40;3.60;;;;;;;;;;768329;180;917568;-74
2021/04/05 05:48:42;;;;;;;6.80;3.77;;;;;;;;;;762889;180;1264869;-74
2021/04/05 05:51:09;;;;;;;6.90;4.77;;;;;;;;;;764120;180;984114;-72
2021/04/05 05:53:45;;;;;;;5.87;4.12;;;;;;;;;;760019;183;919367;-71
2021/04/05 05:56:13;;;;;;;5.83;3.60;;;;;;;;;;766497;180;1115095;-72
2021/04/05 05:58:41;;;;;;;5.28;2.90;;;;;;;;;;763467;180;919336;-74
2021/04/05 06:01:13;;;;;;;7.47;4.57;;;;;;;;;;769912;178;1020739;-71
2021/04/05 06:03:56;;;;;;;8.00;4.37;;;;;;;;;;769766;180;919492;-73
2021/04/05 06:06:23;;;;;;;7.43;3.83;;;;;;;;;;769784;177;918972;-73
2021/04/05 06:08:55;;;;;;;7.57;4.00;;;;;;;;;;766602;180;919232;-74
2021/04/05 06:11:27;;;;;;;9.67;5.30;;;;;;;;;;762080;180;918827;-75
2021/04/05 06:13:53;;;;;;;6.03;4.83;;;;;;;;;;759540;180;919169;-73
2021/04/05 06:16:25;;;;;;;5.70;4.10;;;;;;;;;;768895;180;919497;-73
2021/04/05 06:19:08;;;;;;;8.60;3.70;;;;;;;;;;764242;183;917369;-72
2021/04/05 06:21:37;;;;;;;5.90;4.53;;;;;;;;;;769461;183;918666;-72
2021/04/05 06:24:03;;;;;;;5.63;4.53;;;;;;;;;;766588;180;1261291;-72
2021/04/05 06:26:39;;;;;;;6.97;5.07;;;;;;;;;;769419;180;626721;-73
2021/04/05 06:29:09;;;;;;;8.53;4.40;;;;;;;;;;767683;180;622926;-71
2021/04/05 06:31:37;;;;;;;6.53;4.40;;;;;;;;;;777075;180;619835;-74
2021/04/05 06:34:15;;;;;;;7.00;4.37;;;;;;;;;;764983;180;829399;-74
2021/04/05 06:36:42;;;;;;;7.80;4.70;;;;;;;;;;767331;180;653535;-74
2021/04/05 06:39:08;;;;;;;5.40;3.83;;;;;;;;;;764907;180;629545;-75
2021/04/05 06:41:44;;;;;;;6.30;4.07;;;;;;;;;;776776;180;631504;-75
2021/04/05 06:44:29;;;;;;;6.30;3.47;;;;;;;;;;768461;180;620533;-74
2021/04/05 06:47:12;;;;;;;7.03;3.87;;;;;;;;;;756981;185;670535;-75
2021/04/05 06:49:54;;;;;;;7.37;4.40;;;;;;;;;;767118;183;637263;-74
2021/04/05 06:52:23;;;;;;;6.97;3.97;;;;;;;;;;759408;185;635402;-74
2021/04/05 06:54:51;;;;;;;7.83;4.40;;;;;;;;;;753367;183;667066;-74
2021/04/05 06:57:17;;;;;;;4.23;3.00;;;;;;;;;;771638;180;696185;-74
2021/04/05 06:59:59;;;;;;;6.80;4.37;;;;;;;;;;766608;180;639000;-73
2021/04/05 07:02:31;;;;;;;5.97;3.70;;;;;;;;;;769496;180;628323;-73
2021/04/05 07:04:57;;;;;;;6.40;3.87;;;;;;;;;;769821;180;629236;-74
2021/04/05 07:07:25;;;;;;;6.67;4.37;;;;;;;;;;767040;181;645606;-74
2021/04/05 07:09:57;;;;;;;7.03;4.03;;;;;;;;;;762202;181;889174;-74
2021/04/05 07:12:32;;;;;;;8.03;3.77;;;;;;;;;;767228;180;646677;-75
2021/04/05 07:15:02;;;;;;;8.20;3.53;;;;;;;;;;773416;179;626214;-74
2021/04/05 07:17:31;;;;;;;4.23;2.90;;;;;;;;;;769869;183;621925;-74
2021/04/05 07:20:00;;;;;;;7.80;3.93;;;;;;;;;;771814;180;618199;-73
2021/04/05 07:22:29;;;;;;;7.47;4.90;;;;;;;;;;767824;180;646443;-74
2021/04/05 07:25:01;;;;;;;6.97;4.30;;;;;;;;;;768303;180;630428;-73
2021/04/05 07:27:30;;;;;;;5.30;4.20;;;;;;;;;;763028;182;614832;-74
2021/04/05 07:29:56;;;;;;;5.60;3.10;;;;;;;;;;773780;180;648274;-78
2021/04/05 07:32:38;;;;;;;5.03;3.70;;;;;;;;;;770197;180;613986;-75
2021/04/05 07:35:20;;;;;;;6.70;3.83;;;;;;;;;;769953;180;622830;-74
2021/04/05 07:37:45;;;;;;;6.27;4.30;;;;;;;;;;758863;180;1648130;-75
2021/04/05 07:40:13;;;;;;;14.40;5.40;;;;;;;;;;772914;180;628472;-74
2021/04/05 07:42:46;;;;;;;6.83;4.60;;;;;;;;;;763391;180;716987;-75
2021/04/05 07:45:14;;;;;;;5.03;3.80;;;;;;;;;;768087;180;624769;-74
2021/04/05 07:47:45;;;;;;;6.37;4.80;;;;;;;;;;765342;180;634220;-75
2021/04/05 07:50:14;;;;;;;7.03;4.87;;;;;;;;;;767079;180;671841;-74
2021/04/05 07:52:40;;;;;;;5.63;3.83;;;;;;;;;;769889;180;615263;-74
2021/04/05 07:55:07;;;;;;;7.27;5.03;;;;;;;;;;770498;180;628400;-74
2021/04/05 07:57:32;;;;;;;6.77;4.30;;;;;;;;;;767199;180;726142;-75
2021/04/05 08:00:03;;;;;;;12.90;4.43;;;;;;;;;;771719;180;627590;-73
2021/04/05 08:02:41;;;;;;;9.43;4.73;;;;;;;;;;764948;180;951562;-74
2021/04/05 08:05:09;;;;;;;13.50;5.97;;;;;;;;;;770127;180;635119;-73
2021/04/05 08:07:35;;;;;;;6.17;3.77;;;;;;;;;;766601;180;631855;-73
2021/04/05 08:10:12;;;;;;;7.10;3.97;;;;;;;;;;767631;180;628200;-73
2021/04/05 08:12:53;;;;;;;18.73;3.73;;;;;;;;;;770194;180;635964;-74
2021/04/05 08:15:34;;;;;;;10.27;4.50;;;;;;;;;;770019;179;786770;-76
2021/04/05 08:18:07;;;;;;;9.33;5.30;;;;;;;;;;758643;180;637924;-71
2021/04/05 08:20:35;;;;;;;8.10;4.83;;;;;;;;;;771233;183;628427;-76
2021/04/05 08:23:00;;;;;;;6.60;4.23;;;;;;;;;;759582;180;2598804;-75
2021/04/05 08:25:41;;;;;;;11.50;5.47;;;;;;;;;;770258;180;634075;-75
2021/04/05 08:27:58;;;;;;;9.00;4.43;;;;;;;;;;772789;180;680906;-75
2021/04/05 08:30:26;;;;;;;9.20;5.40;;;;;;;;;;769835;180;626728;-77
2021/04/05 08:32:52;;;;;;;5.20;3.97;;;;;;;;;;771131;180;635635;-74
2021/04/05 08:35:18;;;;;;;6.27;4.50;;;;;;;;;;766447;180;709797;-73
2021/04/05 08:37:49;;;;;;;6.10;4.27;;;;;;;;;;774591;180;629785;-74
2021/04/05 08:40:15;;;;;;;12.40;4.57;;;;;;;;;;769623;180;632902;-71
2021/04/05 08:42:56;;;;;;;9.10;5.97;;;;;;;;;;773990;180;619283;-73
2021/04/05 08:45:22;;;;;;;5.77;3.93;;;;;;;;;;768541;180;690459;-74
2021/04/05 08:47:47;;;;;;;6.40;4.13;;;;;;;;;;771682;180;630647;-73
2021/04/05 08:50:14;;;;;;;7.50;5.30;;;;;;;;;;767639;180;677326;-74
2021/04/05 08:52:39;;;;;;;7.20;4.37;;;;;;;;;;771404;180;628412;-74
2021/04/05 08:55:06;;;;;;;4.53;2.97;;;;;;;;;;772432;180;628585;-74
2021/04/05 08:57:33;;;;;;;7.43;4.80;;;;;;;;;;767162;181;627250;-73
2021/04/05 09:00:04;;;;;;;9.10;5.50;;;;;;;;;;770830;180;630634;-75
2021/04/05 09:02:32;;;;;;;11.00;5.77;;;;;;;;;;772414;180;635578;-74
2021/04/05 09:04:58;;;;;;;8.90;5.83;;;;;;;;;;773061;180;694876;-73
2021/04/05 09:07:27;;;;;;;12.33;7.20;;;;;;;;;;766109;181;629842;-73
2021/04/05 09:09:52;;;;;;;4.40;3.30;;;;;;;;;;770117;180;733906;-74
2021/04/05 09:12:18;;;;;;;8.40;4.87;;;;;;;;;;767153;180;618132;-73
2021/04/05 09:14:47;;;;;;;9.10;5.20;;;;;;;;;;772798;180;632353;-73
2021/04/05 09:17:15;;;;;;;10.50;5.17;;;;;;;;;;767683;179;662967;-73
2021/04/05 09:20:00;;;;;;;8.17;4.53;;;;;;;;;;770436;180;635055;-75
2021/04/05 09:22:32;;;;;;;8.37;5.37;;;;;;;;;;753825;180;651728;-74
2021/04/05 09:25:03;;;;;;;8.97;5.57;;;;;;;;;;767529;179;625654;-74
2021/04/05 09:27:29;;;;;;;9.23;5.27;;;;;;;;;;769811;180;639107;-73
2021/04/05 09:30:01;;;;;;;9.07;4.83;;;;;;;;;;768256;180;618151;-74
2021/04/05 09:32:43;;;;;;;14.73;5.17;;;;;;;;;;769294;180;632446;-75
2021/04/05 09:35:23;;;;;;;6.30;5.40;;;;;;;;;;753561;183;637496;-69
2021/04/05 09:38:05;;;;;;;10.33;5.40;;;;;;;;;;766106;179;686421;-74
2021/04/05 09:40:50;;;;;;;8.03;5.47;;;;;;;;;;758855;179;649896;-74
2021/04/05 09:43:28;;;;;;;8.80;5.20;;;;;;;;;;758510;182;635662;-74
2021/04/05 09:45:55;;;;;;;11.43;6.03;;;;;;;;;;769635;180;639608;-73
2021/04/05 09:48:27;;;;;;;9.83;5.63;;;;;;;;;;768194;180;743911;-74
2021/04/05 09:50:55;;;;;;;10.00;6.00;;;;;;;;;;772526;180;630973;-74
2021/04/05 09:53:24;;;;;;;12.03;5.23;;;;;;;;;;771739;180;625618;-72
2021/04/05 09:55:50;;;;;;;8.40;5.50;;;;;;;;;;768587;180;744562;-73
2021/04/05 09:58:20;;;;;;;6.20;3.00;;;;;;;;;;768059;180;627797;-75
2021/04/05 10:00:46;;;;;;;9.87;5.33;;;;;;;;;;772550;180;620732;-73
2021/04/05 10:03:12;;;;;;;21.53;5.77;;;;;;;;;;765554;180;625106;-71
2021/04/05 10:05:38;;;;;;;9.80;6.50;;;;;;;;;;769133;180;642209;-72
2021/04/05 10:08:04;;;;;;;10.50;5.20;;;;;;;;;;770204;180;616276;-75
2021/04/05 10:10:30;;;;;;;7.67;4.50;;;;;;;;;;770608;180;647447;-73
2021/04/05 10:12:56;;;;;;;8.03;5.07;;;;;;;;;;769936;180;641452;-73
2021/04/05 10:15:22;;;;;;;8.97;4.53;;;;;;;;;;770834;180;632676;-72
2021/04/05 10:17:48;;;;;;;8.73;5.40;;;;;;;;;;767392;183;636545;-74
2021/04/05 10:20:15;;;;;;;8.90;4.60;;;;;;;;;;770750;180;628301;-73
2021/04/05 10:22:40;;;;;;;8.47;5.10;;;;;;;;;;769777;180;623174;-73
2021/04/05 10:25:07;;;;;;;8.10;4.40;;;;;;;;;;770716;180;640940;-72
2021/04/05 10:27:33;;;;;;;8.87;5.30;;;;;;;;;;769982;180;634166;-74
2021/04/05 10:29:59;;;;;;;5.17;3.37;;;;;;;;;;767722;180;624473;-73
2021/04/05 10:32:25;;;;;;;9.13;5.70;;;;;;;;;;774185;180;633489;-73
2021/04/05 10:34:50;;;;;;;10.70;6.53;;;;;;;;;;769838;180;638138;-73
2021/04/05 10:37:16;;;;;;;11.13;5.77;;;;;;;;;;770570;180;1058177;-73
2021/04/05 10:39:46;;;;;;;6.23;4.67;;;;;;;;;;771892;180;640203;-71
2021/04/05 10:42:13;;;;;;;9.00;4.83;;;;;;;;;;768462;180;616439;-73
2021/04/05 10:44:39;;;;;;;9.90;5.03;;;;;;;;;;771160;180;630927;-74
2021/04/05 10:47:05;;;;;;;11.00;6.00;;;;;;;;;;764443;180;734000;-71
2021/04/05 10:49:31;;;;;;;9.37;5.70;;;;;;;;;;776655;179;640359;-72
2021/04/05 10:51:58;;;;;;;8.77;5.00;;;;;;;;;;769872;180;649740;-74
2021/04/05 10:54:28;;;;;;;8.30;5.50;;;;;;;;;;773193;180;630305;-74
2021/04/05 10:56:55;;;;;;;5.90;4.57;;;;;;;;;;766357;180;780658;-74
2021/04/05 10:59:23;;;;;;;8.70;5.80;;;;;;;;;;774670;180;621375;-73
2021/04/05 11:01:49;;;;;;;9.17;5.47;;;;;;;;;;771402;180;624259;-72
2021/04/05 11:04:15;;;;;;;10.00;5.87;;;;;;;;;;767772;180;633274;-73
2021/04/05 11:06:40;;;;;;;6.37;4.10;;;;;;;;;;772054;180;620675;-72
2021/04/05 11:09:06;;;;;;;9.30;4.70;;;;;;;;;;768597;180;642931;-73
2021/04/05 11:11:32;;;;;;;10.55;5.15;;;;;;;;;;762738;180;1165906;-73
2021/04/05 11:13:59;;;;;;;8.18;5.18;;;;;;;;;;768647;180;729273;-73
2021/04/05 11:16:24;;;;;;;11.80;5.47;;;;;;;;;;770804;180;657412;-73
2021/04/05 11:18:53;;;;;;;8.83;4.97;;;;;;;;;;768963;180;633574;-74
2021/04/05 11:21:19;;;;;;;8.93;4.90;;;;;;;;;;774324;180;632697;-72
2021/04/05 11:23:45;;;;;;;9.70;6.20;;;;;;;;;;774592;180;659611;-70
2021/04/05 11:26:11;;;;;;;9.43;5.57;;;;;;;;;;772252;180;642167;-73
2021/04/05 11:28:37;;;;;;;8.57;5.40;;;;;;;;;;766091;178;640204;-70
2021/04/05 11:31:03;;;;;;;7.17;4.10;;;;;;;;;;774200;180;630272;-73
2021/04/05 11:33:29;;;;;;;7.93;5.20;;;;;;;;;;765712;180;620750;-73
2021/04/05 11:35:55;;;;;;;8.63;5.40;;;;;;;;;;769168;181;629870;-72
2021/04/05 11:38:23;;;;;;;10.93;4.80;;;;;;;;;;764572;180;2102382;-72
2021/04/05 11:40:50;;;;;;;7.63;5.00;;;;;;;;;;765430;182;639887;-71
2021/04/05 11:43:17;;;;;;;7.27;4.70;;;;;;;;;;772927;180;647185;-72
2021/04/05 11:45:43;;;;;;;9.23;5.93;;;;;;;;;;765002;180;1204439;-71
2021/04/05 11:48:13;;;;;;;11.17;5.50;;;;;;;;;;771397;180;615322;-73
2021/04/05 11:50:41;;;;;;;7.80;4.50;;;;;;;;;;751038;181;642475;-70
2021/04/05 11:53:05;;;;;;;9.70;5.00;;;;;;;;;;762090;180;633255;-72
2021/04/05 11:55:31;;;;;;;9.67;5.30;;;;;;;;;;769331;180;616500;-72
2021/04/05 11:57:57;;;;;;;7.90;4.60;;;;;;;;;;777576;180;628604;-71
2021/04/05 12:00:23;;;;;;;9.50;5.37;;;;;;;;;;771445;178;628044;-72
2021/04/05 12:02:49;;;;;;;9.03;4.83;;;;;;;;;;771749;180;630367;-69
2021/04/05 12:05:21;;;;;;;7.80;4.83;;;;;;;;;;771862;180;753220;-71
2021/04/05 12:07:47;;;;;;;9.37;5.43;;;;;;;;;;756474;182;652157;-73
2021/04/05 12:10:18;;;;;;;11.30;5.43;;;;;;;;;;771007;180;628868;-72
2021/04/05 12:12:44;;;;;;;11.77;4.70;;;;;;;;;;773544;180;646137;-71
2021/04/05 12:15:09;;;;;;;10.87;5.20;;;;;;;;;;774627;180;636636;-74
2021/04/05 12:17:35;;;;;;;8.57;5.07;;;;;;;;;;773629;180;623833;-71
2021/04/05 12:20:04;;;;;;;7.40;4.80;;;;;;;;;;766732;180;643208;-73
2021/04/05 12:22:30;;;;;;;4.62;2.58;;;;;;;;;;773062;180;629578;-73
2021/04/05 12:24:56;;;;;;;7.77;4.70;;;;;;;;;;770395;182;626499;-73
2021/04/05 12:27:26;;;;;;;8.40;4.90;;;;;;;;;;741229;181;5226233;-72
2021/04/05 12:29:52;;;;;;;7.60;4.33;;;;;;;;;;773159;180;915520;-72
2021/04/05 12:32:17;;;;;;;11.30;4.83;;;;;;;;;;776326;180;629532;-72
2021/04/05 12:34:43;;;;;;;9.20;4.77;;;;;;;;;;772515;180;638541;-72
2021/04/05 12:37:10;;;;;;;10.37;5.20;;;;;;;;;;765817;180;896477;-72
2021/04/05 12:39:36;;;;;;;7.20;4.20;;;;;;;;;;770873;180;849905;-72
2021/04/05 12:42:02;;;;;;;11.77;4.10;;;;;;;;;;766666;180;629173;-73
2021/04/05 12:44:28;;;;;;;5.33;3.37;;;;;;;;;;766167;180;633529;-73
2021/04/05 12:46:53;;;;;;;9.10;4.17;;;;;;;;;;748025;180;3349825;-72
2021/04/05 12:49:20;;;;;;;7.40;4.13;;;;;;;;;;771771;180;625780;-72
2021/04/05 12:51:48;;;;;;;8.33;4.80;;;;;;;;;;772028;180;766057;-73
2021/04/05 12:54:12;;;;;;;6.63;4.17;;;;;;;;;;772028;180;620168;-73
2021/04/05 12:56:38;;;;;;;4.57;3.10;;;;;;;;;;771158;180;635334;-72
2021/04/05 12:59:04;;;;;;;10.30;4.10;;;;;;;;;;769299;180;627211;-72
2021/04/05 13:01:34;;;;;;;10.63;4.57;;;;;;;;;;772359;180;695015;-71
2021/04/05 13:04:00;;;;;;;6.53;3.87;;;;;;;;;;771169;180;623858;-73
2021/04/05 13:06:26;;;;;;;7.90;3.20;;;;;;;;;;769994;180;645444;-72
2021/04/05 13:08:57;;;;;;;9.70;4.17;;;;;;;;;;768036;180;626685;-71
2021/04/05 13:11:28;;;;;;;4.43;2.97;;;;;;;;;;774530;178;625370;-72
2021/04/05 13:13:57;;;;;;;9.27;5.13;;;;;;;;;;771291;180;705796;-71
2021/04/05 13:16:24;;;;;;;7.20;3.87;;;;;;;;;;767662;181;674754;-71
2021/04/05 13:18:50;;;;;;;8.67;4.70;;;;;;;;;;769734;180;629123;-72
2021/04/05 13:21:16;;;;;;;7.93;3.87;;;;;;;;;;770003;180;639551;-72
2021/04/05 13:23:42;;;;;;;8.60;3.77;;;;;;;;;;773016;180;630358;-73
2021/04/05 13:26:07;;;;;;;6.37;3.00;;;;;;;;;;773875;180;637455;-71
2021/04/05 13:28:33;;;;;;;9.77;3.80;;;;;;;;;;768853;180;621187;-70
2021/04/05 13:30:59;;;;;;;9.67;4.40;;;;;;;;;;771903;180;652116;-72
2021/04/05 13:33:25;;;;;;;12.43;4.50;;;;;;;;;;767787;180;1014872;-72
2021/04/05 13:35:51;;;;;;;6.00;3.50;;;;;;;;;;768252;180;638098;-70
2021/04/05 13:38:17;;;;;;;5.17;3.50;;;;;;;;;;765213;180;634547;-70
2021/04/05 13:40:43;;;;;;;8.57;3.90;;;;;;;;;;773280;180;624303;-72
2021/04/05 13:43:12;;;;;;;5.03;3.03;;;;;;;;;;770042;180;641908;-70
2021/04/05 13:45:39;;;;;;;6.93;3.20;;;;;;;;;;769088;180;645402;-73
2021/04/05 13:48:04;;;;;;;6.47;4.30;;;;;;;;;;772511;180;616675;-71
2021/04/05 13:50:30;;;;;;;5.73;2.90;;;;;;;;;;767517;180;627951;-70
2021/04/05 13:52:57;;;;;;;7.10;3.60;;;;;;;;;;770351;180;638075;-72
2021/04/05 13:55:23;;;;;;;5.40;2.50;;;;;;;;;;768720;180;860662;-69
2021/04/05 13:57:49;;;;;;;7.80;2.83;;;;;;;;;;770292;179;630430;-70
2021/04/05 14:00:16;;;;;;;5.60;3.10;;;;;;;;;;767014;180;750135;-72
2021/04/05 14:02:43;;;;;;;6.67;2.70;;;;;;;;;;768741;180;637351;-72
2021/04/05 14:05:09;;;;;;;6.50;2.40;;;;;;;;;;773382;180;623288;-69
2021/04/05 14:07:35;;;;;;;5.07;3.20;;;;;;;;;;772213;180;630931;-71
2021/04/05 14:10:01;;;;;;;6.23;3.20;;;;;;;;;;767725;180;644472;-72
2021/04/05 14:12:28;;;;;;;6.40;3.20;;;;;;;;;;771832;180;632226;-74
2021/04/05 14:14:53;;;;;;;6.93;2.53;;;;;;;;;;764025;180;915093;-72
2021/04/05 14:17:22;;;;;;;5.47;3.10;;;;;;;;;;767517;180;633665;-71
2021/04/05 14:19:46;;;;;;;6.00;2.70;;;;;;;;;;765585;180;634106;-73